Time;durP1;ratioP1;P1;durP2;ratioP2;P2;SDS_P1;SDS_P2;PMS_P1;PMS_P2;Temp;Humidity;BMP_temperature;BMP_pressure;BME280_temperature;BME280_humidity;BME280_pressure;Samples;Min_cycle;Max_cycle;Signal;HPM_P1;HPM_P2
2023/03/13 00:04:34;;;;;;;;;;;;;;;9.06;100.00;100176.34;10415655;28;19925;-62
2023/03/13 00:09:37;;;;;;;;;;;;;;;8.78;100.00;100171.13;10413058;28;20446;-62
2023/03/13 00:14:39;;;;;;;;;;;;;;;8.89;100.00;100160.84;10414859;28;19948;-62
2023/03/13 00:19:41;;;;;;;;;;;;;;;8.86;100.00;100150.59;10412581;28;19925;-62
2023/03/13 00:24:44;;;;;;;;;;;;;;;8.85;100.00;100131.47;10414270;28;19979;-62
2023/03/13 00:29:47;;;;;;;;;;;;;;;8.89;100.00;100132.13;10414519;28;20372;-62
2023/03/13 00:34:50;;;;;;;;;;;;;;;8.70;100.00;100122.81;10413648;28;20412;-62
2023/03/13 00:39:52;;;;;;;;;;;;;;;8.81;100.00;100119.56;10413787;28;19925;-62
2023/03/13 00:44:54;;;;;;;;;;;;;;;8.78;100.00;100105.84;10413722;28;19926;-62
2023/03/13 00:49:56;;;;;;;;;;;;;;;8.89;100.00;100108.63;10419378;28;19924;-62
2023/03/13 00:54:58;;;;;;;;;;;;;;;8.76;100.00;100092.91;10420505;28;19925;-62
2023/03/13 01:00:01;;;;;;;;;;;;;;;8.72;100.00;100080.94;10420708;28;20006;-62
2023/03/13 01:05:03;;;;;;;;;;;;;;;8.58;100.00;100070.53;10419999;28;19979;-62
2023/03/13 01:10:06;;;;;;;;;;;;;;;8.73;100.00;100067.81;10419850;28;19925;-62
2023/03/13 01:15:09;;;;;;;;;;;;;;;8.82;100.00;100036.84;10419591;28;19925;-62
2023/03/13 01:20:11;;;;;;;;;;;;;;;8.91;100.00;100047.56;10419370;28;20320;-62
2023/03/13 01:25:13;;;;;;;;;;;;;;;8.90;100.00;100021.56;10419919;28;19929;-62
2023/03/13 01:30:15;;;;;;;;;;;;;;;8.85;100.00;100007.97;10419990;28;19948;-63
2023/03/13 01:35:18;;;;;;;;;;;;;;;8.83;100.00;100008.06;10416527;28;19925;-62
2023/03/13 01:40:21;;;;;;;;;;;;;;;8.90;100.00;99993.69;10378559;28;20266;-62
2023/03/13 01:45:41;;;;;;;;;;;;;;;9.00;100.00;99980.06;10405285;28;19924;-62
2023/03/13 01:50:44;;;;;;;;;;;;;;;9.01;100.00;99974.72;10419771;28;19925;-62
2023/03/13 01:55:46;;;;;;;;;;;;;;;9.04;100.00;99966.69;10417115;28;19987;-62
2023/03/13 02:00:48;;;;;;;;;;;;;;;9.04;100.00;99937.13;10418211;28;20395;-62
2023/03/13 02:05:50;;;;;;;;;;;;;;;9.33;100.00;99934.38;10418298;28;19925;-62
2023/03/13 02:11:13;;;;;;;;;;;;;;;9.26;100.00;99920.88;10418351;28;19925;-62
2023/03/13 02:16:15;;;;;;;;;;;;;;;9.22;100.00;99909.81;10408812;28;19925;-62
2023/03/13 02:21:37;;;;;;;;;;;;;;;9.42;100.00;99912.91;10417548;28;19948;-62
2023/03/13 02:26:40;;;;;;;;;;;;;;;9.46;100.00;99901.28;10396657;28;19929;-62
2023/03/13 02:31:42;;;;;;;;;;;;;;;9.48;100.00;99871.50;10417419;28;19925;-62
2023/03/13 02:36:44;;;;;;;;;;;;;;;9.57;100.00;99854.38;10414616;28;20023;-62
2023/03/13 02:41:46;;;;;;;;;;;;;;;9.67;100.00;99833.66;10415972;28;20324;-62
2023/03/13 02:46:51;;;;;;;;;;;;;;;9.65;100.00;99819.88;10416056;28;20422;-62
2023/03/13 02:51:54;;;;;;;;;;;;;;;9.67;100.00;99812.75;10416230;28;19925;-62
2023/03/13 02:56:56;;;;;;;;;;;;;;;10.03;100.00;99821.56;10415819;28;19933;-62
2023/03/13 03:02:02;;;;;;;;;;;;;;;9.91;100.00;99819.84;10415761;28;19928;-62
2023/03/13 03:07:04;;;;;;;;;;;;;;;9.96;100.00;99812.50;10416489;28;19932;-62
2023/03/13 03:12:06;;;;;;;;;;;;;;;10.01;100.00;99823.47;10414816;28;20311;-62
2023/03/13 03:17:09;;;;;;;;;;;;;;;10.04;100.00;99815.41;10413781;28;19925;-62
2023/03/13 03:22:11;;;;;;;;;;;;;;;10.10;100.00;99821.97;10415607;28;19951;-62
2023/03/13 03:27:13;;;;;;;;;;;;;;;10.17;100.00;99813.59;10415760;28;20292;-62
2023/03/13 03:32:15;;;;;;;;;;;;;;;10.40;100.00;99816.38;10413603;28;19925;-62
2023/03/13 03:37:17;;;;;;;;;;;;;;;10.40;100.00;99817.19;10415378;28;19926;-64
2023/03/13 03:42:20;;;;;;;;;;;;;;;10.55;100.00;99812.63;10415276;28;19983;-64
2023/03/13 03:47:22;;;;;;;;;;;;;;;10.41;100.00;99794.50;10415333;28;19948;-64
2023/03/13 03:52:24;;;;;;;;;;;;;;;10.39;100.00;99788.53;10414228;28;19926;-64
2023/03/13 03:57:26;;;;;;;;;;;;;;;10.44;100.00;99788.19;10414681;28;19925;-64
2023/03/13 04:02:28;;;;;;;;;;;;;;;10.53;100.00;99798.00;10414399;28;19936;-64
2023/03/13 04:07:31;;;;;;;;;;;;;;;10.54;100.00;99797.88;10414989;28;19929;-63
2023/03/13 04:12:33;;;;;;;;;;;;;;;10.69;100.00;99788.09;10412497;28;19925;-63
2023/03/13 04:17:35;;;;;;;;;;;;;;;10.83;100.00;99783.59;10427306;22;19933;-69
2023/03/13 04:22:38;;;;;;;;;;;;;;;10.72;100.00;99782.59;10416600;28;19925;-69
2023/03/13 04:27:40;;;;;;;;;;;;;;;10.84;100.00;99777.41;10421945;28;19925;-69
2023/03/13 04:32:42;;;;;;;;;;;;;;;10.74;100.00;99764.16;10421492;28;19925;-67
2023/03/13 04:37:44;;;;;;;;;;;;;;;10.93;100.00;99772.31;10420592;28;19925;-66
2023/03/13 04:42:47;;;;;;;;;;;;;;;11.07;100.00;99755.53;10419940;28;20411;-67
2023/03/13 04:47:49;;;;;;;;;;;;;;;11.03;100.00;99741.03;10420135;28;19929;-67
2023/03/13 04:52:51;;;;;;;;;;;;;;;10.94;100.00;99728.63;10420393;28;19933;-67
2023/03/13 04:57:53;;;;;;;;;;;;;;;11.11;100.00;99704.59;10419101;28;19940;-67
2023/03/13 05:02:55;;;;;;;;;;;;;;;11.08;100.00;99701.41;10418654;28;19979;-68
2023/03/13 05:07:57;;;;;;;;;;;;;;;11.14;100.00;99706.97;10421541;28;19979;-68
2023/03/13 05:13:00;;;;;;;;;;;;;;;11.34;100.00;99700.19;10420413;28;19932;-68
2023/03/13 05:18:02;;;;;;;;;;;;;;;11.37;100.00;99696.50;10419408;28;19925;-67
2023/03/13 05:23:04;;;;;;;;;;;;;;;11.46;100.00;99681.84;10419466;28;19947;-68
2023/03/13 05:28:06;;;;;;;;;;;;;;;11.55;100.00;99675.03;10419606;28;19925;-67
2023/03/13 05:33:09;;;;;;;;;;;;;;;11.37;100.00;99672.09;10418424;28;19929;-68
2023/03/13 05:38:11;;;;;;;;;;;;;;;11.59;100.00;99690.41;10415477;28;19925;-67
2023/03/13 05:43:13;;;;;;;;;;;;;;;11.60;100.00;99678.13;10418644;28;19925;-67
2023/03/13 05:48:16;;;;;;;;;;;;;;;11.65;100.00;99684.69;10419990;28;19925;-68
2023/03/13 05:53:18;;;;;;;;;;;;;;;11.67;100.00;99680.13;10416817;28;19925;-68
2023/03/13 05:58:20;;;;;;;;;;;;;;;11.64;100.00;99675.13;10417937;28;20265;-69
2023/03/13 06:03:22;;;;;;;;;;;;;;;11.59;100.00;99677.28;10418507;28;19926;-68
2023/03/13 06:08:24;;;;;;;;;;;;;;;11.69;100.00;99678.22;10415492;28;19933;-68
2023/03/13 06:13:27;;;;;;;;;;;;;;;11.83;100.00;99681.53;10415193;28;20368;-66
2023/03/13 06:18:29;;;;;;;;;;;;;;;11.88;100.00;99661.84;10418766;28;19929;-66
2023/03/13 06:23:32;;;;;;;;;;;;;;;11.94;100.00;99663.19;10417435;28;19929;-70
2023/03/13 06:28:34;;;;;;;;;;;;;;;11.86;100.00;99650.63;10417916;28;19925;-68
2023/03/13 06:33:36;;;;;;;;;;;;;;;11.72;100.00;99650.94;10400076;28;19925;-71
2023/03/13 06:38:38;;;;;;;;;;;;;;;11.93;100.00;99632.66;10417373;28;19975;-70
2023/03/13 06:43:40;;;;;;;;;;;;;;;12.16;100.00;99643.88;10417004;28;19932;-70
2023/03/13 06:48:43;;;;;;;;;;;;;;;12.09;100.00;99645.34;10416474;28;19925;-69
2023/03/13 06:53:46;;;;;;;;;;;;;;;11.96;100.00;99615.84;10416868;28;19951;-70
2023/03/13 06:58:48;;;;;;;;;;;;;;;12.10;100.00;99610.28;10416061;28;19925;-69
2023/03/13 07:03:50;;;;;;;;;;;;;;;12.18;100.00;99612.28;10416480;28;20371;-67
2023/03/13 07:08:52;;;;;;;;;;;;;;;12.16;100.00;99620.28;10416956;28;19932;-68
2023/03/13 07:13:55;;;;;;;;;;;;;;;12.30;100.00;99605.16;10414836;28;20446;-68
2023/03/13 07:19:14;;;;;;;;;;;;;;;12.35;100.00;99616.13;10415643;28;19926;-68
2023/03/13 07:24:16;;;;;;;;;;;;;;;12.39;100.00;99604.38;10415582;28;19925;-68
2023/03/13 07:29:19;;;;;;;;;;;;;;;12.38;100.00;99603.56;10415243;28;20364;-68
2023/03/13 07:34:21;;;;;;;;;;;;;;;12.25;100.00;99616.91;10415488;28;19932;-68
2023/03/13 07:39:23;;;;;;;;;;;;;;;12.43;100.00;99616.31;10415433;28;20269;-68
2023/03/13 07:44:25;;;;;;;;;;;;;;;12.72;100.00;99611.19;10415435;28;20399;-68
2023/03/13 07:49:27;;;;;;;;;;;;;;;12.73;100.00;99596.31;10415311;28;20265;-68
2023/03/13 07:54:30;;;;;;;;;;;;;;;12.79;100.00;99612.38;10415222;28;19926;-67
2023/03/13 07:59:32;;;;;;;;;;;;;;;12.80;100.00;99605.31;10422241;28;19929;-68
2023/03/13 08:04:34;;;;;;;;;;;;;;;12.77;100.00;99602.94;10424022;28;19971;-68
2023/03/13 08:09:36;;;;;;;;;;;;;;;12.79;100.00;99604.50;10423813;28;19925;-67
2023/03/13 08:14:38;;;;;;;;;;;;;;;12.58;100.00;99622.88;10423130;28;19935;-68
2023/03/13 08:19:41;;;;;;;;;;;;;;;12.71;100.00;99625.31;10423426;28;19925;-68
2023/03/13 08:24:43;;;;;;;;;;;;;;;12.88;100.00;99608.13;10423199;28;19979;-68
2023/03/13 08:29:45;;;;;;;;;;;;;;;12.99;100.00;99617.69;10422427;28;19925;-68
2023/03/13 08:34:47;;;;;;;;;;;;;;;12.89;100.00;99608.94;10422235;28;20010;-68
2023/03/13 08:39:50;;;;;;;;;;;;;;;12.98;100.00;99611.59;10421966;28;19925;-68
2023/03/13 08:44:52;;;;;;;;;;;;;;;12.97;100.00;99603.84;10421867;28;19987;-68
2023/03/13 08:49:54;;;;;;;;;;;;;;;13.15;100.00;99601.44;10421635;28;20296;-68
2023/03/13 08:54:56;;;;;;;;;;;;;;;13.06;100.00;99597.78;10422116;28;19932;-68
2023/03/13 08:59:59;;;;;;;;;;;;;;;13.29;100.00;99600.22;10421835;28;19936;-68
2023/03/13 09:05:01;;;;;;;;;;;;;;;13.39;100.00;99595.84;10421047;28;19948;-68
2023/03/13 09:10:04;;;;;;;;;;;;;;;13.42;100.00;99579.81;10420617;28;19971;-67
2023/03/13 09:15:06;;;;;;;;;;;;;;;13.67;100.00;99588.97;10420512;28;19987;-68
2023/03/13 09:20:09;;;;;;;;;;;;;;;13.65;100.00;99593.53;10420422;28;20336;-69
2023/03/13 09:25:11;;;;;;;;;;;;;;;13.85;100.00;99561.97;10420919;28;19925;-67
2023/03/13 09:30:14;;;;;;;;;;;;;;;14.23;100.00;99561.09;10419576;28;19929;-69
2023/03/13 09:35:16;;;;;;;;;;;;;;;14.11;99.39;99541.97;10418725;28;20327;-68
2023/03/13 09:40:19;;;;;;;;;;;;;;;14.71;95.36;99525.06;10420281;28;19934;-68
2023/03/13 09:45:26;;;;;;;;;;;;;;;14.96;90.05;99518.28;10419002;28;19952;-68
2023/03/13 09:50:35;;;;;;;;;;;;;;;14.94;90.15;99519.41;10418253;28;19987;-68
2023/03/13 09:55:38;;;;;;;;;;;;;;;14.81;88.88;99509.19;10418004;28;19925;-69
2023/03/13 10:00:40;;;;;;;;;;;;;;;14.75;87.61;99504.53;10418323;28;19925;-69
2023/03/13 10:05:46;;;;;;;;;;;;;;;14.43;90.88;99508.38;10417642;28;19932;-69
2023/03/13 10:10:51;;;;;;;;;;;;;;;14.86;91.60;99499.03;10401623;28;19929;-69
2023/03/13 10:15:54;;;;;;;;;;;;;;;14.71;87.92;99492.63;10417407;28;19925;-69
2023/03/13 10:21:01;;;;;;;;;;;;;;;14.64;85.76;99495.84;10416851;28;20327;-68
2023/03/13 10:26:03;;;;;;;;;;;;;;;14.62;86.48;99502.22;10417565;28;19929;-69
2023/03/13 10:31:07;;;;;;;;;;;;;;;14.78;85.44;99477.91;10417683;28;19929;-68
2023/03/13 10:36:10;;;;;;;;;;;;;;;14.70;85.29;99469.91;10417530;28;20317;-67
2023/03/13 10:41:18;;;;;;;;;;;;;;;14.82;83.50;99472.16;10416702;28;19940;-67
2023/03/13 10:46:28;;;;;;;;;;;;;;;15.27;81.74;99465.22;10417147;28;19987;-67
2023/03/13 10:51:39;;;;;;;;;;;;;;;15.04;80.97;99446.38;10416376;28;19968;-69
2023/03/13 10:56:41;;;;;;;;;;;;;;;15.08;79.24;99431.94;10416219;28;19925;-70
2023/03/13 11:01:44;;;;;;;;;;;;;;;15.42;78.61;99444.41;10416320;28;19925;-70
2023/03/13 11:06:49;;;;;;;;;;;;;;;15.28;79.33;99429.13;10416480;28;19925;-68
2023/03/13 11:11:55;;;;;;;;;;;;;;;15.92;76.28;99420.06;10415714;28;19932;-68
2023/03/13 11:17:16;;;;;;;;;;;;;;;16.11;76.61;99418.19;10414980;28;19925;-65
2023/03/13 11:22:21;;;;;;;;;;;;;;;16.23;74.89;99405.53;10416576;28;19933;-68
2023/03/13 11:27:35;;;;;;;;;;;;;;;17.29;71.38;99390.91;10415895;28;19947;-69
2023/03/13 11:32:41;;;;;;;;;;;;;;;17.27;71.11;99396.38;10414841;28;19932;-69
2023/03/13 11:37:45;;;;;;;;;;;;;;;17.17;71.68;99391.22;10415097;28;19925;-68
2023/03/13 11:42:47;;;;;;;;;;;;;;;17.95;69.95;99394.31;10416088;28;19933;-65
2023/03/13 11:47:55;;;;;;;;;;;;;;;17.39;68.94;99375.69;10415450;28;19929;-64
2023/03/13 11:53:16;;;;;;;;;;;;;;;17.85;68.44;99348.63;10416024;28;19972;-65
2023/03/13 11:58:24;;;;;;;;;;;;;;;16.80;70.67;99352.03;10415823;28;19972;-67
2023/03/13 12:03:35;;;;;;;;;;;;;;;18.01;67.36;99367.97;10415751;28;19929;-65
2023/03/13 12:08:42;;;;;;;;;;;;;;;18.75;65.50;99356.97;10414531;28;19951;-64
2023/03/13 12:13:45;;;;;;;;;;;;;;;18.68;61.30;99344.63;10414146;28;19951;-66
2023/03/13 12:18:47;;;;;;;;;;;;;;;18.77;57.52;99329.47;10413561;28;19995;-64
2023/03/13 12:24:05;;;;;;;;;;;;;;;19.09;58.90;99341.69;10414739;28;19929;-65
2023/03/13 12:29:27;;;;;;;;;;;;;;;19.59;58.70;99318.97;10415250;28;19929;-67
2023/03/13 12:34:45;;;;;;;;;;;;;;;19.68;58.05;99309.91;10414102;28;19979;-66
2023/03/13 12:39:49;;;;;;;;;;;;;;;19.06;56.89;99313.72;10413904;28;19932;-66
2023/03/13 12:44:51;;;;;;;;;;;;;;;21.83;56.72;99288.84;10417713;28;19932;-67
2023/03/13 12:50:02;;;;;;;;;;;;;;;22.14;49.74;99276.84;10422312;28;19932;-66
2023/03/13 12:55:08;;;;;;;;;;;;;;;22.08;52.33;99278.47;10421530;28;20296;-66
2023/03/13 13:00:13;;;;;;;;;;;;;;;22.52;51.99;99282.50;10421192;28;20004;-66
2023/03/13 13:05:19;;;;;;;;;;;;;;;20.90;53.17;99263.25;10420569;28;19976;-67
2023/03/13 13:10:23;;;;;;;;;;;;;;;18.85;56.13;99290.50;10420409;28;19925;-65
2023/03/13 13:15:26;;;;;;;;;;;;;;;19.36;57.48;99257.19;10419696;28;19932;-65
2023/03/13 13:20:34;;;;;;;;;;;;;;;19.54;57.17;99254.19;10419920;28;19951;-65
2023/03/13 13:25:37;;;;;;;;;;;;;;;19.37;57.62;99243.75;10419716;28;19933;-65
2023/03/13 13:30:39;;;;;;;;;;;;;;;22.56;50.14;99240.25;10420795;28;19951;-65
2023/03/13 13:35:41;;;;;;;;;;;;;;;21.42;48.93;99258.47;10420660;28;20035;-67
2023/03/13 13:41:02;;;;;;;;;;;;;;;21.50;52.22;99233.56;10420365;28;19956;-65
2023/03/13 13:46:09;;;;;;;;;;;;;;;21.02;52.67;99231.63;10420296;28;19925;-66
2023/03/13 13:51:14;;;;;;;;;;;;;;;23.29;48.55;99239.41;10420040;28;19932;-66
2023/03/13 13:56:35;;;;;;;;;;;;;;;25.48;47.24;99216.81;10418865;28;20380;-67
2023/03/13 14:01:38;;;;;;;;;;;;;;;21.47;53.74;99245.44;10418906;28;20392;-65
2023/03/13 14:06:41;;;;;;;;;;;;;;;19.94;56.89;99206.88;10418254;28;19929;-66
2023/03/13 14:11:43;;;;;;;;;;;;;;;18.50;55.36;99215.03;10418019;28;19925;-64
2023/03/13 14:16:52;;;;;;;;;;;;;;;19.94;53.39;99206.88;10418543;28;19932;-65
2023/03/13 14:21:58;;;;;;;;;;;;;;;21.57;47.85;99193.66;10418745;28;19978;-66
2023/03/13 14:27:01;;;;;;;;;;;;;;;21.45;54.16;99177.38;10418573;28;19932;-65
2023/03/13 14:32:03;;;;;;;;;;;;;;;18.30;51.17;99185.56;10416586;28;19948;-64
2023/03/13 14:37:12;;;;;;;;;;;;;;;19.64;53.10;99156.50;10416967;28;19979;-64
2023/03/13 14:42:19;;;;;;;;;;;;;;;18.92;54.42;99166.78;10416093;28;20023;-64
2023/03/13 14:47:25;;;;;;;;;;;;;;;20.03;50.48;99145.50;10417140;28;19925;-65
2023/03/13 14:52:27;;;;;;;;;;;;;;;18.81;56.00;99155.78;10416964;28;20324;-64
2023/03/13 14:57:30;;;;;;;;;;;;;;;18.48;55.81;99134.91;10415668;28;19929;-65
2023/03/13 15:02:33;;;;;;;;;;;;;;;19.24;53.82;99156.81;10417201;28;19925;-64
2023/03/13 15:07:36;;;;;;;;;;;;;;;21.80;48.31;99134.72;10415792;28;20335;-65
2023/03/13 15:12:42;;;;;;;;;;;;;;;19.22;52.07;99134.97;10415783;28;19926;-66
2023/03/13 15:17:44;;;;;;;;;;;;;;;19.37;53.92;99126.19;10414899;28;19925;-65
2023/03/13 15:22:46;;;;;;;;;;;;;;;17.69;56.51;99112.13;10415979;28;20016;-65
2023/03/13 15:27:49;;;;;;;;;;;;;;;21.20;47.91;99116.69;10415953;28;20265;-66
2023/03/13 15:32:53;;;;;;;;;;;;;;;20.27;49.97;99092.97;10415095;28;21205;-65
2023/03/13 15:37:56;;;;;;;;;;;;;;;23.33;46.65;99093.78;10415676;28;20402;-65
2023/03/13 15:42:58;;;;;;;;;;;;;;;23.41;44.27;99088.19;10414331;28;20265;-65
2023/03/13 15:48:00;;;;;;;;;;;;;;;23.77;41.83;99077.91;10415465;28;19929;-65
2023/03/13 15:53:05;;;;;;;;;;;;;;;21.34;46.86;99078.44;10414820;28;19929;-65
2023/03/13 15:58:09;;;;;;;;;;;;;;;24.52;43.42;99063.75;10414125;28;19952;-66
2023/03/13 16:03:19;;;;;;;;;;;;;;;19.40;51.08;99064.75;10413960;28;20391;-65
2023/03/13 16:08:26;;;;;;;;;;;;;;;23.87;42.77;99039.03;10414617;28;19925;-65
2023/03/13 16:13:36;;;;;;;;;;;;;;;23.46;42.13;99044.81;10415404;28;19929;-67
2023/03/13 16:18:38;;;;;;;;;;;;;;;18.88;51.13;99034.78;10419345;28;19925;-65
2023/03/13 16:23:40;;;;;;;;;;;;;;;17.93;55.55;99009.75;10423324;28;19936;-65
2023/03/13 16:28:43;;;;;;;;;;;;;;;17.26;56.16;99008.56;10430112;22;19925;-64
2023/03/13 16:33:45;;;;;;;;;;;;;;;19.20;52.43;98990.25;10382167;28;19952;-64
2023/03/13 16:38:47;;;;;;;;;;;;;;;16.73;57.72;98997.75;10381302;28;19995;-64
2023/03/13 16:43:50;;;;;;;;;;;;;;;16.97;57.50;99006.59;10380050;28;19929;-63
2023/03/13 16:48:52;;;;;;;;;;;;;;;16.62;59.35;99006.03;10381606;28;19925;-64
2023/03/13 16:53:55;;;;;;;;;;;;;;;16.22;58.92;99005.16;10381405;28;20219;-64
2023/03/13 16:58:57;;;;;;;;;;;;;;;15.79;60.41;99003.56;10379401;28;20373;-64
2023/03/13 17:03:59;;;;;;;;;;;;;;;15.93;59.44;99011.78;10379253;28;19929;-63
2023/03/13 17:09:02;;;;;;;;;;;;;;;15.83;61.39;99017.22;10380148;28;20292;-65
2023/03/13 17:14:04;;;;;;;;;;;;;;;15.72;61.59;99018.38;10378848;28;19929;-64
2023/03/13 17:19:08;;;;;;;;;;;;;;;15.84;62.34;99010.16;10380407;28;19933;-64
2023/03/13 17:24:11;;;;;;;;;;;;;;;15.53;61.43;99006.34;10380226;28;19926;-63
2023/03/13 17:29:14;;;;;;;;;;;;;;;15.11;63.07;99009.88;10379010;28;19925;-63
2023/03/13 17:34:18;;;;;;;;;;;;;;;15.12;63.12;99008.88;10378745;28;19976;-63
2023/03/13 17:39:23;;;;;;;;;;;;;;;15.02;62.69;99006.38;10379581;28;19930;-63
2023/03/13 17:44:25;;;;;;;;;;;;;;;14.76;64.51;99006.47;10379465;28;19926;-63
2023/03/13 17:49:29;;;;;;;;;;;;;;;14.80;65.50;99006.97;10378621;28;19949;-63
2023/03/13 17:54:32;;;;;;;;;;;;;;;14.54;65.66;99015.75;10379031;28;19926;-63
2023/03/13 17:59:34;;;;;;;;;;;;;;;14.50;65.18;99003.84;10378171;28;19979;-63
2023/03/13 18:04:36;;;;;;;;;;;;;;;14.24;65.74;99002.06;10378624;28;19925;-63
2023/03/13 18:09:38;;;;;;;;;;;;;;;14.41;67.21;98995.09;10378425;28;19926;-63
2023/03/13 18:14:41;;;;;;;;;;;;;;;14.52;65.31;99007.16;10374429;28;20454;-63
2023/03/13 18:19:43;;;;;;;;;;;;;;;14.35;67.84;99000.97;10374785;28;19933;-63
2023/03/13 18:24:45;;;;;;;;;;;;;;;14.24;65.30;98999.44;10377157;28;20331;-63
2023/03/13 18:29:48;;;;;;;;;;;;;;;14.36;67.92;98986.03;10376021;28;19933;-63
2023/03/13 18:34:50;;;;;;;;;;;;;;;14.18;67.04;98981.63;10376310;28;19929;-63
2023/03/13 18:39:54;;;;;;;;;;;;;;;13.95;67.47;98973.41;10375547;28;19995;-63
2023/03/13 18:44:57;;;;;;;;;;;;;;;13.77;67.67;98975.25;10376743;28;19932;-63
2023/03/13 18:50:00;;;;;;;;;;;;;;;13.74;68.14;98966.72;10375860;28;19972;-63
2023/03/13 18:55:02;;;;;;;;;;;;;;;13.75;67.61;98964.91;10375644;28;19932;-63
2023/03/13 19:00:24;;;;;;;;;;;;;;;13.53;67.64;98967.06;10374832;28;19925;-63
2023/03/13 19:05:27;;;;;;;;;;;;;;;13.16;70.93;98967.16;10375699;28;20000;-63
2023/03/13 19:10:30;;;;;;;;;;;;;;;13.12;70.84;98956.13;10374499;28;19926;-63
2023/03/13 19:15:32;;;;;;;;;;;;;;;12.63;74.01;98955.59;10358090;28;19929;-63
2023/03/13 19:20:34;;;;;;;;;;;;;;;12.92;73.34;98942.28;10374504;28;19938;-63
2023/03/13 19:25:36;;;;;;;;;;;;;;;12.92;72.49;98938.84;10375788;28;19933;-63
2023/03/13 19:30:40;;;;;;;;;;;;;;;12.94;72.42;98945.59;10373534;28;19933;-64
2023/03/13 19:35:43;;;;;;;;;;;;;;;13.00;72.65;98965.19;10375464;28;19949;-63
2023/03/13 19:40:45;;;;;;;;;;;;;;;12.74;75.40;98967.69;10373721;28;19932;-63
2023/03/13 19:45:47;;;;;;;;;;;;;;;12.87;76.28;98957.66;10374735;28;19925;-63
2023/03/13 19:50:49;;;;;;;;;;;;;;;12.67;76.96;98943.81;10373638;28;20001;-63
2023/03/13 19:55:51;;;;;;;;;;;;;;;11.89;79.86;98949.34;10382394;28;20327;-63
2023/03/13 20:00:54;;;;;;;;;;;;;;;11.96;80.34;98939.16;10382283;28;19932;-63
2023/03/13 20:05:59;;;;;;;;;;;;;;;11.91;81.75;98950.06;10382609;28;20400;-63
2023/03/13 20:11:02;;;;;;;;;;;;;;;11.94;82.00;98954.22;10380704;28;19930;-63
2023/03/13 20:16:04;;;;;;;;;;;;;;;11.97;81.80;98961.78;10381000;28;19925;-63
2023/03/13 20:21:07;;;;;;;;;;;;;;;11.42;86.81;98967.63;10380726;28;20032;-63
2023/03/13 20:26:10;;;;;;;;;;;;;;;11.81;84.59;98972.84;10380758;28;19926;-63
2023/03/13 20:31:12;;;;;;;;;;;;;;;11.54;86.36;98942.94;10377856;28;19926;-63
2023/03/13 20:36:15;;;;;;;;;;;;;;;11.36;87.07;98934.94;10377176;28;19925;-63
2023/03/13 20:41:23;;;;;;;;;;;;;;;11.22;87.85;98944.03;10380547;28;19932;-63
2023/03/13 20:46:26;;;;;;;;;;;;;;;10.94;88.01;98941.28;10381185;28;20012;-62
2023/03/13 20:51:28;;;;;;;;;;;;;;;10.72;90.11;98949.34;10379612;28;19926;-62
2023/03/13 20:56:30;;;;;;;;;;;;;;;10.88;92.18;98952.28;10379773;28;19930;-62
2023/03/13 21:01:32;;;;;;;;;;;;;;;11.26;86.14;98963.78;10380174;28;19925;-63
2023/03/13 21:06:35;;;;;;;;;;;;;;;11.00;89.57;98954.78;10377848;28;20019;-63
2023/03/13 21:11:37;;;;;;;;;;;;;;;10.97;92.31;98958.47;10377701;28;19929;-62
2023/03/13 21:16:39;;;;;;;;;;;;;;;11.05;92.77;98948.16;10377009;28;19932;-63
2023/03/13 21:21:42;;;;;;;;;;;;;;;10.79;92.31;98950.44;10377921;28;20028;-62
2023/03/13 21:26:44;;;;;;;;;;;;;;;10.81;93.80;98953.78;10377610;28;20304;-62
2023/03/13 21:31:46;;;;;;;;;;;;;;;10.87;93.86;98949.78;10379391;28;19925;-62
2023/03/13 21:36:48;;;;;;;;;;;;;;;10.84;96.36;98934.34;10374532;28;20024;-63
2023/03/13 21:41:51;;;;;;;;;;;;;;;10.92;94.86;98931.88;10379339;28;19930;-62
2023/03/13 21:46:53;;;;;;;;;;;;;;;10.84;97.68;98901.13;10377333;28;19926;-62
2023/03/13 21:51:55;;;;;;;;;;;;;;;10.98;96.53;98884.22;10374343;28;19972;-63
2023/03/13 21:56:58;;;;;;;;;;;;;;;11.27;94.30;98893.84;10378817;28;19932;-62
2023/03/13 22:02:00;;;;;;;;;;;;;;;11.35;95.67;98901.84;10376027;28;20339;-62
2023/03/13 22:07:02;;;;;;;;;;;;;;;11.98;92.80;98887.38;10376163;28;20368;-63
2023/03/13 22:12:04;;;;;;;;;;;;;;;11.90;93.61;98891.53;10376886;28;19925;-62
2023/03/13 22:17:07;;;;;;;;;;;;;;;11.82;93.50;98883.53;10376390;28;20407;-63
2023/03/13 22:22:09;;;;;;;;;;;;;;;11.85;94.83;98875.41;10375242;28;19979;-63
2023/03/13 22:27:12;;;;;;;;;;;;;;;12.05;93.04;98860.44;10377126;28;19925;-62
2023/03/13 22:32:17;;;;;;;;;;;;;;;11.94;95.44;98865.06;10377022;28;19973;-62
2023/03/13 22:37:21;;;;;;;;;;;;;;;11.60;98.69;98857.66;10373182;28;19929;-63
2023/03/13 22:42:23;;;;;;;;;;;;;;;11.78;96.56;98855.13;10375879;28;19925;-62
2023/03/13 22:47:25;;;;;;;;;;;;;;;11.64;97.45;98856.41;10374784;28;19929;-63
2023/03/13 22:52:29;;;;;;;;;;;;;;;11.65;97.10;98856.28;10374251;28;20459;-62
2023/03/13 22:57:32;;;;;;;;;;;;;;;11.56;97.35;98874.66;10375079;28;19925;-62
2023/03/13 23:02:34;;;;;;;;;;;;;;;11.65;98.53;98881.66;10376311;28;19933;-62
2023/03/13 23:07:39;;;;;;;;;;;;;;;11.47;98.98;98876.31;10375432;28;19926;-62
2023/03/13 23:12:41;;;;;;;;;;;;;;;11.52;99.45;98877.53;10375634;28;19930;-62
2023/03/13 23:17:43;;;;;;;;;;;;;;;11.52;100.00;98851.34;10374058;28;19925;-62
2023/03/13 23:22:47;;;;;;;;;;;;;;;11.45;98.97;98837.16;10374552;28;19945;-62
2023/03/13 23:27:49;;;;;;;;;;;;;;;11.55;99.47;98821.41;10374607;28;19925;-62
2023/03/13 23:32:52;;;;;;;;;;;;;;;11.41;100.00;98817.44;10372729;28;19925;-62
2023/03/13 23:37:54;;;;;;;;;;;;;;;11.41;99.97;98814.81;10375540;28;19961;-62
2023/03/13 23:42:56;;;;;;;;;;;;;;;11.36;100.00;98817.03;10372721;28;19933;-62
2023/03/13 23:47:58;;;;;;;;;;;;;;;11.56;99.82;98809.13;10362681;28;19979;-62
2023/03/13 23:53:00;;;;;;;;;;;;;;;11.61;97.11;98827.88;10374070;28;20006;-62
2023/03/13 23:58:03;;;;;;;;;;;;;;;11.41;98.65;98827.91;10371935;28;19933;-62
